EDT,Max TemperatureF,Mean TemperatureF,Min TemperatureF,Max Dew PointF,MeanDew PointF,Min DewpointF,Max Humidity, Mean Humidity, Min Humidity, Max Sea Level PressureIn, Mean Sea Level PressureIn, Min Sea Level PressureIn, Max VisibilityMiles, Mean VisibilityMiles, Min VisibilityMiles, Max Wind SpeedMPH, Mean Wind SpeedMPH, Max Gust SpeedMPH,PrecipitationIn, CloudCover, Events, WindDirDegrees
2012-9-1,96,85,75,78,74,72,91,76,47,30.13,30.07,30.01,10.0,9.0,5.0,8,5,,0.00,2,,236
2012-9-2,91,82,73,76,73,68,100,84,55,30.04,30.02,29.98,10.0,5.1,0.5,21,5,32,2.06,4,Rain-Thunderstorm,18
2012-9-3,84,78,73,75,73,71,100,88,66,30.09,30.03,29.99,10.0,6.8,1.5,10,4,,0.28,4,Rain-Thunderstorm,105
2012-9-4,87,79,72,75,72,70,96,83,65,30.07,30.02,29.97,10.0,7.5,0.8,13,3,,0.21,2,Rain,185
2012-9-5,89,80,70,73,71,68,93,77,59,29.99,29.95,29.90,10.0,9.9,9.0,13,5,20,0.00,1,,209
2012-9-6,90,80,70,74,72,68,94,78,53,29.98,29.94,29.89,10.0,9.0,0.8,22,7,20,0.97,2,Rain-Thunderstorm,217
2012-9-7,84,78,71,75,72,68,94,83,69,29.97,29.92,29.88,10.0,9.0,3.0,15,6,,0.30,5,Rain-Thunderstorm,162
2012-9-8,87,80,73,75,72,68,94,80,65,29.88,29.82,29.77,10.0,9.6,7.0,16,7,25,0.08,3,,204
2012-9-9,79,74,68,70,66,60,94,79,60,29.95,29.85,29.78,10.0,9.9,7.0,16,8,,0.00,5,,351
2012-9-10,80,70,61,59,55,51,90,61,39,30.16,30.04,29.94,10.0,10.0,10.0,16,6,22,0.00,0,,346
2012-9-11,79,68,57,58,55,49,93,66,36,30.30,30.24,30.16,10.0,10.0,10.0,12,3,18,0.00,1,,31
2012-9-12,79,68,57,61,58,53,90,69,40,30.33,30.30,30.27,10.0,10.0,10.0,15,5,21,0.02,0,,53
2012-9-13,82,73,64,67,63,60,87,72,52,30.31,30.26,30.22,10.0,10.0,10.0,16,8,,0.00,1,,45
2012-9-14,82,75,69,69,68,67,94,82,64,30.22,30.18,30.14,10.0,9.3,1.8,18,8,24,0.10,4,Rain,44
2012-9-15,86,76,66,68,65,60,94,78,47,30.16,30.12,30.08,10.0,8.5,0.5,10,3,,0.00,2,Fog,6
2012-9-16,78,70,64,62,59,52,87,67,43,30.16,30.13,30.09,10.0,10.0,10.0,9,3,,0.02,5,,53
2012-9-17,82,75,68,70,67,61,94,78,58,30.12,30.07,30.01,10.0,9.9,7.0,15,4,24,0.00,4,,141
2012-9-18,84,78,71,74,71,69,94,84,66,30.00,29.87,29.81,10.0,7.6,0.5,24,10,34,1.07,6,Fog-Rain-Thunderstorm,191
2012-9-19,73,72,68,72,67,57,94,85,61,30.05,29.93,29.85,10.0,9.4,7.0,16,7,,0.04,5,,314
2012-9-20,78,70,64,62,60,58,81,70,60,30.12,30.08,30.04,10.0,10.0,10.0,12,8,,0.00,5,,23
2012-9-21,81,70,61,63,60,56,93,74,48,30.09,30.06,30.02,10.0,10.0,10.0,8,2,,0.00,0,Fog,54
2012-9-22,82,72,61,66,63,59,94,80,53,30.05,30.01,29.96,10.0,8.5,1.8,13,2,18,0.00,0,,209
2012-9-23,79,71,64,67,62,56,90,74,58,30.12,30.03,29.96,10.0,9.8,8.0,14,6,16,0.00,3,,21
2012-9-24,73,65,55,56,51,46,81,62,37,30.22,30.16,30.10,10.0,10.0,10.0,17,8,20,0.00,0,,57
2012-9-25,77,65,53,59,53,49,90,69,43,30.27,30.23,30.19,10.0,9.9,8.0,10,2,,0.00,2,,88
2012-9-26,82,69,57,64,59,54,93,74,47,30.25,30.20,30.17,10.0,10.0,9.0,8,1,,0.00,0,,153
2012-9-27,84,72,60,66,61,57,97,78,40,30.21,30.16,30.11,10.0,8.6,1.5,8,1,,0.00,1,,359
2012-9-28,84,71,60,68,62,57,100,83,51,30.12,30.08,30.00,10.0,7.1,0.5,10,1,,0.00,1,Fog,221
2012-9-29,80,72,66,68,66,64,100,88,68,29.99,29.94,29.88,10.0,7.4,0.2,25,6,32,0.89,4,Fog-Rain-Thunderstorm,24
2012-9-30,73,68,62,65,62,61,94,84,68,29.93,29.89,29.86,10.0,7.7,2.5,9,5,,0.00,7,Rain,360